Time;durP1;ratioP1;P1;durP2;ratioP2;P2;SDS_P1;SDS_P2;PMS_P1;PMS_P2;Temp;Humidity;BMP_temperature;BMP_pressure;BME280_temperature;BME280_humidity;BME280_pressure;Samples;Min_cycle;Max_cycle;Signal;HPM_P1;HPM_P2
2022/08/13 00:01:24;;;;;;;15.27;5.32;;;;;;;;;;5052610;27;96763;-80
2022/08/13 00:04:00;;;;;;;12.02;5.10;;;;;;;;;;5050986;27;97857;-80
2022/08/13 00:09:21;;;;;;;7.70;5.05;;;;;;;;;;5051963;27;95840;-81
2022/08/13 00:14:56;;;;;;;9.90;5.68;;;;;;;;;;5054913;27;95531;-79
2022/08/13 00:17:26;;;;;;;11.02;5.15;;;;;;;;;;5052685;27;97354;-81
2022/08/13 00:20:12;;;;;;;10.55;5.88;;;;;;;;;;5052517;27;95164;-79
2022/08/13 00:22:39;;;;;;;7.55;5.10;;;;;;;;;;5049389;27;96801;-79
2022/08/13 00:25:07;;;;;;;13.25;5.05;;;;;;;;;;5052546;27;98291;-79
2022/08/13 00:27:36;;;;;;;15.25;5.43;;;;;;;;;;5052217;27;95210;-79
2022/08/13 00:30:24;;;;;;;8.93;5.43;;;;;;;;;;5051961;27;98850;-78
2022/08/13 00:32:59;;;;;;;12.80;5.25;;;;;;;;;;5050961;27;97104;-78
2022/08/13 00:35:25;;;;;;;7.05;4.60;;;;;;;;;;5053455;27;95595;-79
2022/08/13 00:38:15;;;;;;;11.27;5.07;;;;;;;;;;5052243;27;97364;-80
2022/08/13 00:40:47;;;;;;;;;;;;;;;;;;5053131;27;95412;-79
2022/08/13 00:43:21;;;;;;;14.20;5.45;;;;;;;;;;5050115;27;126405;-79
2022/08/13 00:45:48;;;;;;;10.15;5.10;;;;;;;;;;5049072;27;97489;-79
2022/08/13 00:51:01;;;;;;;10.63;5.35;;;;;;;;;;5055666;27;97042;-79
2022/08/13 00:53:30;;;;;;;12.02;5.05;;;;;;;;;;5054812;27;97412;-79
2022/08/13 00:56:11;;;;;;;7.63;4.57;;;;;;;;;;5054533;27;95223;-79
2022/08/13 00:58:39;;;;;;;11.57;5.03;;;;;;;;;;5058908;27;97822;-80
2022/08/13 01:01:07;;;;;;;8.60;4.82;;;;;;;;;;5051275;27;96065;-79
2022/08/13 01:03:43;;;;;;;12.35;4.70;;;;;;;;;;5052945;27;98318;-80
2022/08/13 01:06:32;;;;;;;9.88;5.32;;;;;;;;;;5053197;27;96227;-80
2022/08/13 01:08:58;;;;;;;8.27;5.00;;;;;;;;;;5053379;27;95222;-80
2022/08/13 01:11:31;;;;;;;12.82;5.03;;;;;;;;;;5054024;27;96948;-80
2022/08/13 01:13:59;;;;;;;10.38;4.90;;;;;;;;;;5051972;27;97587;-80
2022/08/13 01:16:27;;;;;;;13.35;5.40;;;;;;;;;;5055492;27;95299;-80
2022/08/13 01:18:54;;;;;;;8.32;5.38;;;;;;;;;;5054832;27;95922;-79
2022/08/13 01:21:23;;;;;;;9.95;5.20;;;;;;;;;;5056967;27;97489;-80
2022/08/13 01:24:10;;;;;;;9.77;5.28;;;;;;;;;;5052177;27;96989;-79
2022/08/13 01:26:39;;;;;;;13.15;5.53;;;;;;;;;;5053382;27;99151;-80
2022/08/13 01:29:13;;;;;;;10.27;5.78;;;;;;;;;;5055157;27;95293;-79
2022/08/13 01:31:41;;;;;;;9.95;6.38;;;;;;;;;;5054871;27;96793;-78
2022/08/13 01:34:07;;;;;;;13.52;5.00;;;;;;;;;;5052885;27;97502;-80
2022/08/13 01:36:49;;;;;;;8.55;5.80;;;;;;;;;;5054691;27;95245;-80
2022/08/13 01:39:22;;;;;;;11.63;5.68;;;;;;;;;;5053842;27;96721;-81
2022/08/13 01:41:55;;;;;;;11.20;5.45;;;;;;;;;;5054194;27;97473;-80
2022/08/13 01:44:23;;;;;;;8.07;5.47;;;;;;;;;;5054370;27;95429;-79
2022/08/13 01:50:29;;;;;;;9.55;5.28;;;;;;;;;;5054751;27;95490;-79
2022/08/13 01:52:39;;;;;;;11.23;5.25;;;;;;;;;;5046168;27;96972;-80
2022/08/13 01:55:06;;;;;;;8.20;4.93;;;;;;;;;;5053024;27;97176;-80
2022/08/13 01:57:37;;;;;;;10.25;5.10;;;;;;;;;;5053988;27;95325;-79
2022/08/13 02:00:16;;;;;;;;;;;;;;;;;;5054260;27;97373;-79
2022/08/13 02:02:53;;;;;;;9.13;6.05;;;;;;;;;;5051193;27;126646;-80
2022/08/13 02:05:22;;;;;;;14.00;6.63;;;;;;;;;;5052883;27;95991;-79
2022/08/13 02:08:09;;;;;;;11.15;6.28;;;;;;;;;;5054339;27;95702;-80
2022/08/13 02:10:37;;;;;;;15.13;7.00;;;;;;;;;;5054506;27;95381;-79
2022/08/13 02:13:07;;;;;;;7.53;5.50;;;;;;;;;;5053604;27;97987;-80
2022/08/13 02:15:34;;;;;;;7.35;5.18;;;;;;;;;;5051267;27;98891;-80
2022/08/13 02:18:17;;;;;;;10.93;4.93;;;;;;;;;;5045286;27;95373;-79
2022/08/13 02:20:56;;;;;;;11.73;5.10;;;;;;;;;;5033708;27;98109;-79
2022/08/13 02:23:25;;;;;;;8.20;5.00;;;;;;;;;;5040689;27;97434;-78
2022/08/13 02:26:13;;;;;;;11.18;5.05;;;;;;;;;;5051606;27;95133;-79
2022/08/13 02:28:40;;;;;;;6.05;4.13;;;;;;;;;;5052238;27;97058;-80
2022/08/13 02:31:08;;;;;;;15.13;4.97;;;;;;;;;;5057083;27;97235;-80
2022/08/13 02:33:52;;;;;;;7.97;5.07;;;;;;;;;;5052550;27;96786;-79
2022/08/13 02:36:21;;;;;;;9.68;5.03;;;;;;;;;;5051974;27;97671;-80
2022/08/13 02:38:55;;;;;;;15.25;4.90;;;;;;;;;;5052552;27;95336;-79
2022/08/13 02:41:43;;;;;;;15.25;5.05;;;;;;;;;;5050638;27;96236;-79
2022/08/13 02:44:20;;;;;;;8.07;4.75;;;;;;;;;;5053577;27;97213;-79
2022/08/13 02:47:01;;;;;;;8.05;5.00;;;;;;;;;;5052524;27;95396;-80
2022/08/13 02:49:28;;;;;;;7.82;4.90;;;;;;;;;;5050530;27;97951;-80
2022/08/13 02:52:11;;;;;;;9.00;4.90;;;;;;;;;;5055500;27;98773;-80
2022/08/13 02:54:42;;;;;;;10.43;5.15;;;;;;;;;;5053506;27;97267;-80
2022/08/13 02:57:21;;;;;;;7.32;4.88;;;;;;;;;;5047436;27;96296;-78
2022/08/13 02:59:49;;;;;;;8.25;4.82;;;;;;;;;;5050812;27;95983;-79
2022/08/13 03:02:34;;;;;;;8.95;4.72;;;;;;;;;;5051868;27;96457;-80
2022/08/13 03:05:05;;;;;;;12.90;5.13;;;;;;;;;;5052014;27;97599;-79
2022/08/13 03:07:38;;;;;;;7.65;4.75;;;;;;;;;;5050633;27;95364;-79
2022/08/13 03:10:20;;;;;;;8.80;4.80;;;;;;;;;;5049689;27;96373;-79
2022/08/13 03:13:08;;;;;;;7.53;5.07;;;;;;;;;;5045605;27;97311;-80
2022/08/13 03:15:36;;;;;;;10.40;5.10;;;;;;;;;;5041679;27;95450;-79
2022/08/13 03:18:23;;;;;;;8.18;4.80;;;;;;;;;;5037334;27;99627;-79
2022/08/13 03:20:51;;;;;;;9.43;4.90;;;;;;;;;;5051959;27;95415;-79
2022/08/13 03:23:18;;;;;;;8.50;5.20;;;;;;;;;;5053266;27;96921;-80
2022/08/13 03:25:51;;;;;;;9.65;5.10;;;;;;;;;;5049526;27;97653;-79
2022/08/13 03:28:18;;;;;;;8.77;5.43;;;;;;;;;;5048679;27;95416;-80
2022/08/13 03:30:46;;;;;;;6.95;4.72;;;;;;;;;;5052155;27;96978;-79
2022/08/13 03:33:21;;;;;;;9.90;5.07;;;;;;;;;;5052913;27;97526;-79
2022/08/13 03:35:47;;;;;;;8.30;5.30;;;;;;;;;;5053220;27;95337;-79
2022/08/13 03:38:16;;;;;;;10.05;5.05;;;;;;;;;;5049934;27;96912;-75
2022/08/13 03:41:00;;;;;;;9.60;5.35;;;;;;;;;;5046700;27;95270;-76
2022/08/13 03:43:32;;;;;;;7.82;4.70;;;;;;;;;;5053362;27;97593;-77
2022/08/13 03:46:20;;;;;;;11.35;5.10;;;;;;;;;;5051288;27;98620;-81
2022/08/13 03:48:53;;;;;;;7.75;5.13;;;;;;;;;;5050717;27;95233;-81
2022/08/13 03:51:23;;;;;;;7.63;4.93;;;;;;;;;;5052344;27;96866;-80
2022/08/13 03:54:07;;;;;;;9.18;5.43;;;;;;;;;;5052094;27;97051;-78
2022/08/13 03:56:39;;;;;;;11.75;5.20;;;;;;;;;;5044747;27;95604;-79
2022/08/13 03:59:09;;;;;;;8.68;5.10;;;;;;;;;;5046802;27;96896;-77
2022/08/13 04:01:36;;;;;;;8.20;4.75;;;;;;;;;;5055450;27;97344;-79
2022/08/13 04:04:17;;;;;;;7.50;5.05;;;;;;;;;;5051897;27;97309;-80
2022/08/13 19:34:40;;;;;;;10.43;4.55;;;;;;;;;;4504242;27;15734482;-81
2022/08/13 19:37:22;;;;;;;4.53;2.65;;;;;;;;;;5087186;27;95951;-79
2022/08/13 19:40:16;;;;;;;6.00;2.90;;;;;;;;;;5077893;27;96295;-79
2022/08/13 19:43:03;;;;;;;4.25;2.55;;;;;;;;;;5059495;27;97101;-79
2022/08/13 19:45:30;;;;;;;6.63;3.20;;;;;;;;;;5080527;27;97368;-81
2022/08/13 19:48:16;;;;;;;9.30;2.97;;;;;;;;;;5071875;27;97314;-80
2022/08/13 19:51:03;;;;;;;8.05;2.92;;;;;;;;;;5080370;27;95357;-82
2022/08/13 19:53:48;;;;;;;13.73;3.72;;;;;;;;;;5084017;27;96916;-81
2022/08/13 19:56:17;;;;;;;;;;;;;;;;;;5083063;27;97417;-81
2022/08/13 19:58:44;;;;;;;8.90;3.30;;;;;;;;;;5074351;27;126221;-81
2022/08/13 20:01:11;;;;;;;13.32;4.00;;;;;;;;;;5076183;27;96478;-81
2022/08/13 20:03:38;;;;;;;9.30;3.75;;;;;;;;;;5076927;27;95372;-81
2022/08/13 20:06:21;;;;;;;6.68;3.65;;;;;;;;;;5081194;27;96660;-80
2022/08/13 20:08:54;;;;;;;6.07;3.40;;;;;;;;;;5076466;27;97285;-80
2022/08/13 20:11:21;;;;;;;5.43;3.15;;;;;;;;;;5067168;27;95395;-78
2022/08/13 20:13:51;;;;;;;7.97;3.30;;;;;;;;;;5085249;27;96761;-81
2022/08/13 20:16:21;;;;;;;13.88;3.83;;;;;;;;;;5071864;27;97333;-81
2022/08/13 20:18:48;;;;;;;8.07;3.72;;;;;;;;;;5081070;27;95620;-81
2022/08/13 20:21:24;;;;;;;5.57;3.10;;;;;;;;;;5086948;27;97366;-82
2022/08/13 20:23:51;;;;;;;7.90;2.90;;;;;;;;;;5087402;27;96432;-82
2022/08/13 20:26:17;;;;;;;11.73;3.47;;;;;;;;;;5073458;27;96764;-80
2022/08/13 20:28:47;;;;;;;8.60;3.10;;;;;;;;;;5063485;27;97445;-80
2022/08/13 20:31:14;;;;;;;13.80;3.75;;;;;;;;;;5085840;27;95430;-81
2022/08/13 20:33:42;;;;;;;8.80;3.35;;;;;;;;;;5080031;27;96822;-81
2022/08/13 20:36:09;;;;;;;5.55;3.00;;;;;;;;;;5068078;27;97266;-80
2022/08/13 20:38:37;;;;;;;12.60;3.28;;;;;;;;;;5074996;27;97001;-80
2022/08/13 20:41:12;;;;;;;10.75;3.75;;;;;;;;;;5077715;27;96987;-81
2022/08/13 20:43:39;;;;;;;19.15;4.18;;;;;;;;;;5072294;27;95301;-80
2022/08/13 20:46:24;;;;;;;14.13;3.92;;;;;;;;;;5059099;27;96882;-80
2022/08/13 20:48:54;;;;;;;13.32;4.40;;;;;;;;;;5072248;27;97516;-81
2022/08/13 20:51:24;;;;;;;11.80;3.70;;;;;;;;;;5075253;27;96884;-81
2022/08/13 20:53:50;;;;;;;14.35;4.05;;;;;;;;;;5067291;27;96845;-80
2022/08/13 20:56:18;;;;;;;18.08;3.75;;;;;;;;;;5073867;27;97418;-81
2022/08/13 20:59:05;;;;;;;9.02;3.75;;;;;;;;;;5055470;27;96575;-81
2022/08/13 21:01:51;;;;;;;11.93;3.97;;;;;;;;;;5059581;27;98045;-80
2022/08/13 21:04:19;;;;;;;16.52;4.45;;;;;;;;;;5076751;27;97627;-81
2022/08/13 21:06:47;;;;;;;12.40;4.75;;;;;;;;;;5054383;27;96875;-81
2022/08/13 21:09:17;;;;;;;19.55;4.70;;;;;;;;;;5064860;27;97810;-80
2022/08/13 21:11:43;;;;;;;10.73;4.88;;;;;;;;;;5070771;27;96756;-80
2022/08/13 21:14:15;;;;;;;15.38;4.53;;;;;;;;;;5061389;27;96803;-81
2022/08/13 21:16:56;;;;;;;16.08;4.38;;;;;;;;;;5067304;27;97693;-81
2022/08/13 21:19:24;;;;;;;14.60;4.45;;;;;;;;;;5057763;27;96138;-80
2022/08/13 21:22:04;;;;;;;16.80;3.97;;;;;;;;;;5042081;27;96976;-81
2022/08/13 21:24:34;;;;;;;15.75;4.75;;;;;;;;;;5069384;27;98030;-81
2022/08/13 21:27:01;;;;;;;8.63;4.50;;;;;;;;;;5064228;27;95488;-80
2022/08/13 21:29:47;;;;;;;11.15;4.15;;;;;;;;;;5071119;27;98645;-81
2022/08/13 21:32:15;;;;;;;13.18;4.90;;;;;;;;;;5061360;27;96659;-80
2022/08/13 21:34:46;;;;;;;13.50;4.50;;;;;;;;;;5047065;27;96702;-80
2022/08/13 21:37:12;;;;;;;19.67;4.65;;;;;;;;;;5061620;27;97480;-80
2022/08/13 21:39:44;;;;;;;12.60;4.72;;;;;;;;;;5068687;27;95362;-81
2022/08/13 21:42:10;;;;;;;14.35;5.30;;;;;;;;;;5072527;27;95855;-81
2022/08/13 21:44:38;;;;;;;15.52;4.82;;;;;;;;;;5074216;27;97602;-80
2022/08/13 21:47:07;;;;;;;10.52;5.07;;;;;;;;;;5074987;27;95157;-81
2022/08/13 21:49:43;;;;;;;15.27;4.82;;;;;;;;;;5062540;27;96825;-80
2022/08/13 21:52:13;;;;;;;11.68;4.70;;;;;;;;;;5056282;27;95640;-81
2022/08/13 21:54:42;;;;;;;7.38;4.57;;;;;;;;;;5070529;27;96747;-80
2022/08/13 21:57:17;;;;;;;16.58;4.80;;;;;;;;;;5052623;27;97718;-81
2022/08/13 21:59:44;;;;;;;12.95;5.00;;;;;;;;;;5054623;27;95353;-80
2022/08/13 22:02:10;;;;;;;8.70;5.00;;;;;;;;;;5065255;27;96877;-80
2022/08/13 22:04:36;;;;;;;12.82;4.72;;;;;;;;;;5054354;27;97592;-81
2022/08/13 22:07:04;;;;;;;10.32;4.93;;;;;;;;;;5035550;27;95492;-80
2022/08/13 22:09:34;;;;;;;11.17;5.10;;;;;;;;;;5057134;27;96797;-81
2022/08/13 22:12:00;;;;;;;16.30;5.43;;;;;;;;;;5064942;27;97399;-80
2022/08/13 22:14:34;;;;;;;12.43;5.75;;;;;;;;;;5070113;27;96728;-80
2022/08/13 22:17:01;;;;;;;15.73;5.38;;;;;;;;;;5047747;27;97349;-81
2022/08/13 22:19:29;;;;;;;13.88;5.40;;;;;;;;;;5056955;27;95255;-82
2022/08/13 22:21:56;;;;;;;15.45;5.90;;;;;;;;;;5060579;27;96561;-82
2022/08/13 22:24:22;;;;;;;18.17;5.63;;;;;;;;;;5071385;27;97329;-82
2022/08/13 22:26:50;;;;;;;13.15;5.78;;;;;;;;;;5065863;27;95372;-84
2022/08/13 22:32:02;;;;;;;10.63;5.03;;;;;;;;;;5075802;27;97688;-80
2022/08/13 22:34:28;;;;;;;10.65;5.10;;;;;;;;;;5069227;27;96005;-82
2022/08/13 22:37:15;;;;;;;13.38;4.97;;;;;;;;;;5066414;27;98760;-80
2022/08/13 22:39:41;;;;;;;12.95;5.47;;;;;;;;;;5074537;27;95384;-81
2022/08/13 22:42:11;;;;;;;12.60;5.72;;;;;;;;;;5071385;27;96761;-80
2022/08/13 22:44:45;;;;;;;13.75;5.60;;;;;;;;;;5058071;27;97346;-82
2022/08/13 22:47:12;;;;;;;8.88;5.25;;;;;;;;;;5064476;27;95351;-81
2022/08/13 22:49:38;;;;;;;9.30;5.35;;;;;;;;;;5071242;27;96829;-82
2022/08/13 22:52:05;;;;;;;13.43;4.95;;;;;;;;;;5073235;27;97878;-81
2022/08/13 22:54:31;;;;;;;14.50;5.40;;;;;;;;;;5077562;27;95413;-82
2022/08/13 22:56:57;;;;;;;7.70;5.40;;;;;;;;;;5061348;27;97391;-81
2022/08/13 22:59:24;;;;;;;9.90;4.88;;;;;;;;;;5045546;27;95140;-82
2022/08/13 23:01:51;;;;;;;8.38;5.00;;;;;;;;;;5053982;27;97021;-81
2022/08/13 23:04:17;;;;;;;18.45;5.68;;;;;;;;;;5053587;27;96656;-81
2022/08/13 23:06:48;;;;;;;7.78;5.15;;;;;;;;;;5061146;27;96516;-81
2022/08/13 23:09:14;;;;;;;17.38;5.50;;;;;;;;;;5070136;27;97096;-81
2022/08/13 23:11:41;;;;;;;10.43;5.80;;;;;;;;;;5072967;27;97354;-81
2022/08/13 23:14:08;;;;;;;10.02;4.93;;;;;;;;;;5055294;27;95418;-81
2022/08/13 23:16:35;;;;;;;9.52;5.10;;;;;;;;;;5076102;27;97089;-81
2022/08/13 23:19:01;;;;;;;13.07;5.55;;;;;;;;;;5058202;27;95194;-81
2022/08/13 23:21:29;;;;;;;8.23;5.40;;;;;;;;;;5053266;27;97231;-81
2022/08/13 23:23:56;;;;;;;8.82;4.80;;;;;;;;;;5071686;27;96144;-81
2022/08/13 23:26:23;;;;;;;10.07;5.57;;;;;;;;;;5072712;27;95262;-81
2022/08/13 23:28:56;;;;;;;15.35;5.60;;;;;;;;;;5066214;27;97606;-81
2022/08/13 23:31:24;;;;;;;12.90;6.22;;;;;;;;;;5073566;27;97265;-82
2022/08/13 23:33:51;;;;;;;7.20;5.30;;;;;;;;;;5052542;27;96012;-82
2022/08/13 23:36:20;;;;;;;9.07;5.60;;;;;;;;;;5052956;27;96828;-81
2022/08/13 23:38:54;;;;;;;8.57;5.30;;;;;;;;;;5072493;27;97612;-81
2022/08/13 23:41:20;;;;;;;10.00;5.60;;;;;;;;;;5062429;27;96715;-82
2022/08/13 23:43:48;;;;;;;11.73;5.45;;;;;;;;;;5071763;27;97294;-81
2022/08/13 23:46:16;;;;;;;9.52;5.40;;;;;;;;;;5064361;27;95369;-81
2022/08/13 23:48:43;;;;;;;9.07;5.60;;;;;;;;;;5047622;27;97293;-81
2022/08/13 23:51:11;;;;;;;10.02;5.40;;;;;;;;;;5071568;27;97332;-81
2022/08/13 23:53:37;;;;;;;10.63;4.97;;;;;;;;;;5053114;27;96535;-81
2022/08/13 23:56:06;;;;;;;10.93;6.40;;;;;;;;;;5065960;27;96778;-81
2022/08/13 23:58:36;;;;;;;7.10;5.38;;;;;;;;;;5069053;27;97647;-81
